Time;durP1;ratioP1;P1;durP2;ratioP2;P2;SDS_P1;SDS_P2;PMS_P1;PMS_P2;Temp;Humidity;BMP_temperature;BMP_pressure;BME280_temperature;BME280_humidity;BME280_pressure;Samples;Min_cycle;Max_cycle;Signal;HPM_P1;HPM_P2
2024/01/07 00:01:11;;;;;;;17.85;11.00;;;;;;;1.43;100.00;95933.41;4976387;28;20041;-73
2024/01/07 00:03:41;;;;;;;15.43;10.13;;;;;;;1.62;100.00;95925.69;4980367;28;20042;-74
2024/01/07 00:06:06;;;;;;;15.38;9.32;;;;;;;1.83;100.00;95925.69;4968145;28;20042;-73
2024/01/07 00:08:31;;;;;;;13.70;8.55;;;;;;;1.87;100.00;95923.94;4980542;28;20045;-72
2024/01/07 00:10:57;;;;;;;12.48;8.68;;;;;;;1.63;100.00;95924.56;4980110;28;20046;-73
2024/01/07 00:13:22;;;;;;;14.32;8.30;;;;;;;1.65;100.00;95921.53;4974879;28;20050;-72
2024/01/07 00:15:48;;;;;;;14.07;8.48;;;;;;;1.74;100.00;95918.78;4979413;28;20042;-73
2024/01/07 00:18:13;;;;;;;12.90;8.55;;;;;;;1.82;100.00;95918.72;4975999;28;20050;-73
2024/01/07 00:20:38;;;;;;;13.27;8.52;;;;;;;1.88;100.00;95913.91;4978420;28;20455;-77
2024/01/07 00:23:04;;;;;;;12.45;8.48;;;;;;;1.91;100.00;95916.75;4975345;28;20046;-77
2024/01/07 00:25:29;;;;;;;11.32;7.65;;;;;;;2.05;100.00;95921.06;4979406;28;20038;-74
2024/01/07 00:27:55;;;;;;;13.85;7.90;;;;;;;2.00;100.00;95915.88;4979789;28;20111;-71
2024/01/07 00:30:21;;;;;;;10.30;7.30;;;;;;;2.03;100.00;95913.28;4977447;28;20052;-73
2024/01/07 00:32:46;;;;;;;12.07;7.72;;;;;;;2.05;100.00;95905.69;4980859;28;20046;-72
2024/01/07 00:35:12;;;;;;;12.00;7.72;;;;;;;1.93;100.00;95911.00;4977201;28;20042;-72
2024/01/07 00:37:37;;;;;;;12.15;7.85;;;;;;;1.94;100.00;95917.19;4980068;28;20532;-73
2024/01/07 00:40:04;;;;;;;10.35;6.97;;;;;;;2.07;100.00;95910.72;4978095;28;20124;-75
2024/01/07 00:42:30;;;;;;;10.00;6.93;;;;;;;2.01;100.00;95915.53;4980063;28;20057;-74
2024/01/07 00:44:55;;;;;;;9.43;7.15;;;;;;;2.00;100.00;95916.69;4980236;28;20050;-72
2024/01/07 00:47:21;;;;;;;10.98;7.20;;;;;;;2.07;100.00;95921.53;4975282;28;20528;-72
2024/01/07 00:49:46;;;;;;;11.38;6.90;;;;;;;2.08;100.00;95913.09;4980031;28;20057;-74
2024/01/07 00:52:11;;;;;;;11.15;6.70;;;;;;;2.09;100.00;95913.91;4973090;28;20046;-74
2024/01/07 00:54:37;;;;;;;8.77;6.45;;;;;;;2.02;100.00;95906.31;4971227;28;20120;-73
2024/01/07 00:57:03;;;;;;;8.75;6.65;;;;;;;2.03;100.00;95909.81;4977437;28;20070;-74
2024/01/07 00:59:29;;;;;;;10.27;6.78;;;;;;;1.96;100.00;95913.03;4978856;28;20092;-74
2024/01/07 01:01:55;;;;;;;8.30;6.47;;;;;;;1.84;100.00;95908.38;4979610;28;20042;-72
2024/01/07 01:04:22;;;;;;;9.45;6.35;;;;;;;2.02;100.00;95916.34;4976681;28;20057;-73
2024/01/07 01:06:47;;;;;;;7.82;6.05;;;;;;;2.16;100.00;95914.16;4994955;28;20688;-71
2024/01/07 01:09:13;;;;;;;8.02;5.60;;;;;;;2.24;100.00;95910.56;4976129;28;20042;-71
2024/01/07 01:11:38;;;;;;;7.78;5.47;;;;;;;2.19;100.00;95912.69;4976790;28;20054;-71
2024/01/07 01:14:03;;;;;;;8.68;5.60;;;;;;;2.21;100.00;95918.56;4974916;28;20035;-75
2024/01/07 01:16:29;;;;;;;6.90;5.40;;;;;;;2.24;100.00;95929.50;4977625;28;20533;-71
2024/01/07 01:18:55;;;;;;;7.85;5.80;;;;;;;2.27;100.00;95930.75;4972159;28;20069;-70
2024/01/07 01:21:20;;;;;;;8.07;5.65;;;;;;;2.26;100.00;95929.94;4971987;28;20121;-71
2024/01/07 01:23:47;;;;;;;9.48;5.97;;;;;;;2.31;100.00;95930.88;4989127;28;20044;-71
2024/01/07 01:26:12;;;;;;;8.35;5.30;;;;;;;2.34;100.00;95927.50;4976053;28;20043;-70
2024/01/07 01:28:37;;;;;;;9.70;5.95;;;;;;;2.33;100.00;95925.94;4978482;28;20456;-71
2024/01/07 01:31:03;;;;;;;7.63;5.72;;;;;;;2.37;100.00;95926.84;4978060;28;20055;-76
2024/01/07 01:33:28;;;;;;;9.93;5.95;;;;;;;2.27;100.00;95928.06;4978904;28;20057;-73
2024/01/07 01:35:54;;;;;;;9.05;6.38;;;;;;;2.20;100.00;95938.59;4978960;28;20481;-71
2024/01/07 01:38:19;;;;;;;9.32;6.15;;;;;;;2.13;100.00;95932.94;4974196;28;20049;-70
2024/01/07 01:40:54;;;;;;;8.70;6.53;;;;;;;2.04;100.00;95928.38;4980033;28;20062;-72
2024/01/07 01:43:26;;;;;;;10.68;7.25;;;;;;;2.15;100.00;95930.69;4976704;28;20050;-72
2024/01/07 01:45:56;;;;;;;9.25;6.93;;;;;;;2.22;100.00;95926.34;4979895;28;20046;-72
2024/01/07 01:48:22;;;;;;;10.60;6.93;;;;;;;2.19;100.00;95931.63;4976524;28;20247;-71
2024/01/07 01:50:48;;;;;;;9.82;6.32;;;;;;;2.25;100.00;95927.56;4981906;28;20042;-71
2024/01/07 01:53:15;;;;;;;8.73;6.13;;;;;;;2.16;100.00;95921.47;4973806;28;20042;-73
2024/01/07 01:55:42;;;;;;;9.35;6.63;;;;;;;2.20;100.00;95925.09;4980573;28;20042;-73
2024/01/07 01:58:09;;;;;;;9.60;6.88;;;;;;;2.23;100.00;95930.63;4967624;28;20042;-74
2024/01/07 02:00:34;;;;;;;11.55;6.78;;;;;;;1.90;100.00;95927.88;4979169;28;20125;-72
2024/01/07 02:03:00;;;;;;;11.10;7.07;;;;;;;1.85;100.00;95922.66;4979617;28;20484;-72
2024/01/07 02:05:27;;;;;;;9.80;6.95;;;;;;;1.99;100.00;95930.50;4975751;28;20186;-74
2024/01/07 02:07:54;;;;;;;10.80;7.13;;;;;;;1.96;100.00;95923.06;4980971;28;20094;-72
2024/01/07 02:10:20;;;;;;;11.90;7.93;;;;;;;1.81;100.00;95921.75;4978354;28;20573;-74
2024/01/07 02:12:45;;;;;;;10.02;7.00;;;;;;;1.84;100.00;95937.28;4984718;28;20133;-74
2024/01/07 02:15:11;;;;;;;12.55;7.18;;;;;;;1.83;100.00;95930.31;4979962;28;20050;-74
2024/01/07 02:17:36;;;;;;;11.35;7.47;;;;;;;1.85;100.00;95931.53;4981661;28;20085;-74
2024/01/07 02:20:02;;;;;;;11.50;7.45;;;;;;;1.82;100.00;95926.81;4981158;28;20062;-74
2024/01/07 02:22:27;;;;;;;10.68;7.35;;;;;;;1.88;100.00;95930.09;4980567;28;20165;-73
2024/01/07 02:24:53;;;;;;;11.05;7.05;;;;;;;1.96;100.00;95931.94;4985258;28;20058;-75
2024/01/07 02:27:18;;;;;;;11.25;7.28;;;;;;;1.98;100.00;95928.91;4988546;28;20050;-75
2024/01/07 02:29:43;;;;;;;10.10;7.25;;;;;;;2.04;100.00;95931.09;4994388;28;20042;-76
2024/01/07 02:32:09;;;;;;;9.77;6.95;;;;;;;2.21;100.00;95930.16;4985430;28;20170;-75
2024/01/07 02:34:34;;;;;;;10.43;6.72;;;;;;;2.27;100.00;95922.66;4989147;28;20054;-74
2024/01/07 02:36:59;;;;;;;9.10;6.28;;;;;;;2.33;100.00;95923.22;4991473;28;20109;-75
2024/01/07 02:39:25;;;;;;;9.52;6.85;;;;;;;2.30;100.00;95921.97;4990918;28;20046;-72
2024/01/07 02:41:50;;;;;;;9.80;6.53;;;;;;;2.33;100.00;95924.00;4981688;28;20200;-73
2024/01/07 02:44:16;;;;;;;10.18;6.53;;;;;;;2.29;100.00;95923.09;4976029;28;20045;-74
2024/01/07 02:46:41;;;;;;;9.95;6.90;;;;;;;2.29;100.00;95921.19;4983251;28;20521;-74
2024/01/07 02:49:06;;;;;;;12.13;7.35;;;;;;;2.27;100.00;95920.72;4978059;28;20043;-75
2024/01/07 02:51:32;;;;;;;10.13;6.60;;;;;;;2.32;100.00;95921.66;4982439;28;20049;-73
2024/01/07 02:53:57;;;;;;;10.57;6.75;;;;;;;2.15;100.00;95928.78;4981900;28;20528;-74
2024/01/07 02:56:22;;;;;;;9.32;6.60;;;;;;;2.17;100.00;95925.75;4977876;28;20050;-74
2024/01/07 02:58:48;;;;;;;10.25;6.50;;;;;;;2.19;100.00;95923.50;4981822;28;20046;-72
2024/01/07 03:01:13;;;;;;;9.10;6.43;;;;;;;2.29;100.00;95923.88;4977032;28;20065;-73
2024/01/07 03:03:39;;;;;;;8.95;6.97;;;;;;;2.29;100.00;95926.59;4965778;28;20152;-73
2024/01/07 03:06:04;;;;;;;11.48;6.60;;;;;;;2.25;100.00;95930.28;4975734;28;20050;-74
2024/01/07 03:08:29;;;;;;;10.55;6.40;;;;;;;2.08;100.00;95925.81;4981995;28;20049;-73
2024/01/07 03:10:55;;;;;;;8.38;6.38;;;;;;;2.00;100.00;95924.78;4978975;28;20048;-73
2024/01/07 03:13:20;;;;;;;10.00;6.60;;;;;;;2.05;100.00;95929.19;4977659;28;20038;-74
2024/01/07 03:15:46;;;;;;;9.20;6.68;;;;;;;2.07;100.00;95926.94;4980981;28;20129;-73
2024/01/07 03:18:11;;;;;;;10.43;6.63;;;;;;;2.09;100.00;95933.59;4976259;28;20393;-73
2024/01/07 03:20:36;;;;;;;8.48;5.93;;;;;;;2.05;100.00;95929.97;4979947;28;20104;-72
2024/01/07 03:23:02;;;;;;;9.50;6.13;;;;;;;2.10;100.00;95931.69;4980896;28;20572;-74
2024/01/07 03:25:27;;;;;;;8.88;5.97;;;;;;;2.10;100.00;95920.88;4980524;28;20053;-73
2024/01/07 03:27:53;;;;;;;8.40;6.10;;;;;;;2.12;100.00;95924.03;4983728;28;20050;-73
2024/01/07 03:30:18;;;;;;;8.50;6.22;;;;;;;1.91;100.00;95929.47;4976746;28;20493;-73
2024/01/07 03:32:43;;;;;;;9.10;6.60;;;;;;;1.92;100.00;95922.91;4981191;28;20497;-73
2024/01/07 03:35:09;;;;;;;8.95;6.15;;;;;;;1.98;100.00;95928.91;4974858;28;20137;-73
2024/01/07 03:37:35;;;;;;;9.15;6.47;;;;;;;1.86;100.00;95926.94;4980353;28;20500;-73
2024/01/07 03:40:01;;;;;;;7.63;5.72;;;;;;;1.96;100.00;95925.75;4980359;28;20046;-73
2024/01/07 03:42:26;;;;;;;7.10;5.65;;;;;;;2.02;100.00;95930.63;4976829;28;20057;-73
2024/01/07 03:44:51;;;;;;;8.45;5.70;;;;;;;2.17;100.00;95928.47;4978558;28;20173;-73
2024/01/07 03:47:17;;;;;;;8.13;5.80;;;;;;;2.20;100.00;95933.22;4975244;28;20047;-73
2024/01/07 03:49:42;;;;;;;8.88;5.95;;;;;;;2.18;100.00;95928.13;4980591;28;20074;-74
2024/01/07 03:52:08;;;;;;;7.80;5.55;;;;;;;2.16;100.00;95935.78;4968749;28;20054;-73
2024/01/07 03:54:34;;;;;;;8.05;5.70;;;;;;;2.19;100.00;95932.41;4984528;28;20042;-73
2024/01/07 03:56:59;;;;;;;7.30;5.47;;;;;;;2.17;100.00;95928.47;4980686;28;20046;-73
2024/01/07 03:59:25;;;;;;;10.35;5.95;;;;;;;2.17;100.00;95936.56;4977261;28;20497;-73
2024/01/07 04:01:56;;;;;;;7.85;5.55;;;;;;;2.26;100.00;95931.88;4979238;28;20066;-73
2024/01/07 04:04:21;;;;;;;7.22;5.88;;;;;;;2.30;100.00;95932.78;4976303;28;20129;-73
2024/01/07 04:06:46;;;;;;;7.47;5.25;;;;;;;2.31;100.00;95933.59;4986622;28;20138;-73
2024/01/07 04:09:12;;;;;;;8.20;5.75;;;;;;;2.25;100.00;95936.50;4957818;28;20045;-74
2024/01/07 04:11:41;;;;;;;8.32;5.60;;;;;;;2.32;100.00;95929.75;4979998;28;20048;-73
2024/01/07 04:14:07;;;;;;;;;;;;;;;2.26;100.00;95934.56;4998402;28;20056;-74
2024/01/07 04:16:34;;;;;;;11.60;5.55;;;;;;;2.32;100.00;95935.16;4979098;28;19925;-73
2024/01/07 04:18:59;;;;;;;8.93;5.85;;;;;;;2.33;100.00;95934.81;4987651;28;20042;-73
2024/01/07 04:21:24;;;;;;;7.78;5.45;;;;;;;2.33;100.00;95936.75;4986408;28;20378;-72
2024/01/07 04:23:50;;;;;;;9.20;5.72;;;;;;;2.34;100.00;95939.13;4981971;28;20101;-74
2024/01/07 04:26:15;;;;;;;8.32;6.00;;;;;;;2.27;100.00;95939.66;4977985;28;20042;-73
2024/01/07 04:28:42;;;;;;;8.93;5.82;;;;;;;2.18;100.00;95949.75;4978629;28;20057;-73
2024/01/07 04:31:07;;;;;;;8.70;6.18;;;;;;;2.19;100.00;95945.91;4973468;28;22664;-71
2024/01/07 04:33:33;;;;;;;8.77;5.90;;;;;;;2.24;100.00;95951.09;4994863;28;20136;-73
2024/01/07 04:35:59;;;;;;;9.45;6.25;;;;;;;2.28;100.00;95946.63;4980668;28;20101;-73
2024/01/07 04:38:24;;;;;;;8.73;6.20;;;;;;;2.12;100.00;95940.25;4976822;28;20042;-73
2024/01/07 04:40:51;;;;;;;10.68;6.53;;;;;;;2.16;100.00;95948.47;4977638;28;20046;-73
2024/01/07 04:43:17;;;;;;;10.05;6.43;;;;;;;2.21;100.00;95943.66;4976124;28;20428;-74
2024/01/07 04:45:43;;;;;;;10.15;6.55;;;;;;;2.28;100.00;95941.22;4980023;28;20096;-73
2024/01/07 04:48:10;;;;;;;9.85;6.65;;;;;;;2.31;100.00;95941.69;4973294;28;20752;-73
2024/01/07 04:50:35;;;;;;;9.45;6.72;;;;;;;2.11;100.00;95954.88;4979332;28;20082;-73
2024/01/07 04:53:00;;;;;;;9.63;6.47;;;;;;;2.03;100.00;95950.31;4977977;28;20477;-73
2024/01/07 04:55:27;;;;;;;10.02;7.00;;;;;;;2.07;100.00;95948.53;4989543;28;20077;-73
2024/01/07 04:57:52;;;;;;;9.10;6.13;;;;;;;1.90;100.00;95942.16;4978551;28;20049;-72
2024/01/07 05:00:17;;;;;;;12.40;7.30;;;;;;;1.61;100.00;95951.09;4959727;28;20039;-73
2024/01/07 05:02:43;;;;;;;10.75;6.28;;;;;;;1.72;100.00;95952.28;4986611;28;20051;-73
2024/01/07 05:05:09;;;;;;;10.10;6.43;;;;;;;1.69;100.00;95954.84;4986704;28;20058;-74
2024/01/07 05:07:34;;;;;;;11.32;7.03;;;;;;;1.63;100.00;95956.16;4988427;28;20054;-73
2024/01/07 05:09:59;;;;;;;14.23;7.60;;;;;;;1.48;100.00;95973.72;4988128;28;20050;-73
2024/01/07 05:12:25;;;;;;;12.68;7.80;;;;;;;1.46;100.00;95968.63;4993111;28;20132;-73
2024/01/07 05:14:51;;;;;;;14.85;8.55;;;;;;;1.46;100.00;95973.22;4981110;28;20542;-73
2024/01/07 05:17:17;;;;;;;17.42;8.55;;;;;;;1.46;100.00;95973.22;4974262;28;20650;-73
2024/01/07 05:19:42;;;;;;;17.15;9.45;;;;;;;1.33;100.00;95977.72;4979880;28;20042;-73
2024/01/07 05:22:08;;;;;;;16.13;9.05;;;;;;;1.29;100.00;95974.88;4978485;28;20054;-73
2024/01/07 05:24:33;;;;;;;15.95;10.07;;;;;;;1.36;100.00;95979.00;4981638;28;20050;-73
2024/01/07 05:26:58;;;;;;;16.05;9.75;;;;;;;1.25;100.00;95981.28;4980938;28;20122;-73
2024/01/07 05:29:24;;;;;;;16.50;10.57;;;;;;;1.23;100.00;95981.59;4974971;28;20069;-74
2024/01/07 05:31:49;;;;;;;17.67;10.52;;;;;;;1.20;100.00;95976.06;4979365;28;20050;-73
2024/01/07 05:34:15;;;;;;;18.15;10.27;;;;;;;1.13;100.00;95980.06;4978110;28;20043;-72
2024/01/07 05:36:40;;;;;;;15.10;9.20;;;;;;;1.25;100.00;95987.44;4979663;28;20065;-72
2024/01/07 05:39:06;;;;;;;16.70;10.45;;;;;;;1.18;100.00;95981.75;4973917;28;20070;-73
2024/01/07 05:41:32;;;;;;;15.77;9.93;;;;;;;1.23;100.00;95992.38;4981183;28;20049;-72
2024/01/07 05:43:58;;;;;;;20.45;9.18;;;;;;;1.27;100.00;95987.91;4982185;28;20405;-72
2024/01/07 05:46:23;;;;;;;19.00;10.60;;;;;;;1.32;100.00;95986.97;4978396;28;20500;-72
2024/01/07 05:48:49;;;;;;;19.90;10.38;;;;;;;1.28;100.00;95994.13;4983919;28;20049;-72
2024/01/07 05:51:15;;;;;;;14.27;9.32;;;;;;;1.32;100.00;95987.75;4976818;28;20053;-72
2024/01/07 05:53:41;;;;;;;19.33;10.60;;;;;;;1.34;100.00;95992.81;4983361;28;20206;-72
2024/01/07 05:56:07;;;;;;;14.25;8.55;;;;;;;1.30;100.00;95987.28;4976565;28;20042;-72
2024/01/07 05:58:33;;;;;;;16.85;10.02;;;;;;;1.32;100.00;95992.34;4984691;28;20161;-72
2024/01/07 06:01:00;;;;;;;17.38;9.73;;;;;;;1.36;100.00;95985.19;4979856;28;20570;-74
2024/01/07 06:03:25;;;;;;;14.77;8.82;;;;;;;1.44;100.00;95995.16;4971765;28;20054;-72
2024/01/07 06:05:51;;;;;;;13.27;8.45;;;;;;;1.54;100.00;96002.09;4993603;28;20493;-73
2024/01/07 06:08:16;;;;;;;15.90;9.30;;;;;;;1.55;100.00;96000.97;4979048;28;20093;-72
2024/01/07 06:10:41;;;;;;;13.27;8.57;;;;;;;1.38;100.00;95999.13;4982534;28;20621;-72
2024/01/07 06:13:07;;;;;;;17.35;9.15;;;;;;;1.26;100.00;95997.13;4977495;28;20046;-72
2024/01/07 06:15:32;;;;;;;14.63;9.60;;;;;;;1.13;100.00;96006.22;4982692;28;20081;-73
2024/01/07 06:17:58;;;;;;;16.98;10.48;;;;;;;1.12;100.00;96005.44;4981343;28;20096;-72
2024/01/07 06:20:24;;;;;;;18.95;10.43;;;;;;;1.15;100.00;96009.38;4981179;28;20847;-72
2024/01/07 06:22:50;;;;;;;15.07;9.35;;;;;;;1.15;100.00;96003.97;4984471;28;20053;-72
2024/01/07 06:25:15;;;;;;;18.38;10.30;;;;;;;1.20;100.00;96011.13;4978149;28;20050;-72
2024/01/07 06:27:41;;;;;;;15.68;10.00;;;;;;;1.27;100.00;96014.09;4982607;28;20085;-73
2024/01/07 06:30:07;;;;;;;16.45;10.15;;;;;;;1.45;100.00;96015.63;4976445;28;20105;-73
2024/01/07 06:32:33;;;;;;;16.02;10.27;;;;;;;1.53;100.00;96020.19;4982587;28;20397;-73
2024/01/07 06:34:59;;;;;;;15.82;9.95;;;;;;;1.58;100.00;96010.31;4982600;28;20048;-72
2024/01/07 06:37:25;;;;;;;16.83;10.48;;;;;;;1.67;100.00;96014.56;4977298;28;20541;-73
2024/01/07 06:39:50;;;;;;;13.40;9.07;;;;;;;1.71;100.00;96012.00;4981826;28;20052;-73
2024/01/07 06:42:16;;;;;;;15.95;9.65;;;;;;;1.71;100.00;96017.41;4974165;28;20046;-74
2024/01/07 06:44:41;;;;;;;12.88;8.63;;;;;;;1.84;100.00;96008.28;4982038;28;20077;-74
2024/01/07 06:47:07;;;;;;;13.32;8.43;;;;;;;1.82;100.00;96024.03;4977325;28;20069;-74
2024/01/07 06:49:33;;;;;;;13.23;8.57;;;;;;;1.87;100.00;96013.03;4981519;28;20056;-73
2024/01/07 06:51:58;;;;;;;11.23;7.88;;;;;;;1.87;100.00;96025.72;4981439;28;20097;-73
2024/01/07 06:54:24;;;;;;;11.73;8.15;;;;;;;1.84;100.00;96027.19;4976929;28;20505;-74
2024/01/07 06:56:50;;;;;;;11.50;8.00;;;;;;;1.71;100.00;96022.78;4982871;28;20139;-73
2024/01/07 06:59:15;;;;;;;12.63;8.05;;;;;;;1.77;100.00;96034.22;4968889;28;20139;-74
2024/01/07 07:01:41;;;;;;;14.32;8.23;;;;;;;1.70;100.00;96023.94;4982304;28;20055;-73
2024/01/07 07:04:06;;;;;;;11.88;8.57;;;;;;;1.69;100.00;96030.44;4977494;28;20050;-74
2024/01/07 07:06:32;;;;;;;11.50;7.57;;;;;;;1.72;100.00;96030.56;4982351;28;20062;-74
2024/01/07 07:08:57;;;;;;;10.35;7.20;;;;;;;1.72;100.00;96035.19;4980889;28;20085;-73
2024/01/07 07:11:22;;;;;;;10.27;6.60;;;;;;;1.63;100.00;96032.53;4981322;28;20159;-73
2024/01/07 07:13:48;;;;;;;10.15;7.18;;;;;;;1.58;100.00;96030.00;4983769;28;20100;-73
2024/01/07 07:16:14;;;;;;;11.90;8.45;;;;;;;1.49;100.00;96031.94;4979893;28;20094;-72
2024/01/07 07:18:39;;;;;;;14.55;7.90;;;;;;;1.40;100.00;96033.91;4982534;28;20065;-73
2024/01/07 07:21:05;;;;;;;12.82;8.88;;;;;;;1.34;100.00;96049.47;4978064;28;20046;-73
2024/01/07 07:23:30;;;;;;;14.60;8.98;;;;;;;1.37;100.00;96045.34;4978119;28;20193;-73
2024/01/07 07:25:56;;;;;;;12.98;8.55;;;;;;;1.43;100.00;96035.97;4982248;28;20425;-73
2024/01/07 07:28:22;;;;;;;14.60;8.65;;;;;;;1.51;100.00;96043.22;4977378;28;21653;-72
2024/01/07 07:30:47;;;;;;;13.02;8.82;;;;;;;1.43;100.00;96046.75;4980242;28;20051;-73
2024/01/07 07:33:13;;;;;;;14.52;9.85;;;;;;;1.44;100.00;96053.72;4977593;28;20109;-73
2024/01/07 07:35:40;;;;;;;13.02;9.20;;;;;;;1.51;100.00;96048.59;4981167;28;20062;-73
2024/01/07 07:38:06;;;;;;;19.95;12.52;;;;;;;1.72;100.00;96052.16;4974063;28;20137;-73
2024/01/07 07:40:32;;;;;;;13.10;8.73;;;;;;;1.55;100.00;96049.56;4981912;28;20169;-71
2024/01/07 07:42:57;;;;;;;13.60;8.45;;;;;;;1.59;100.00;96058.59;4980248;28;20467;-72
2024/01/07 07:45:23;;;;;;;13.32;9.15;;;;;;;1.67;100.00;96055.03;4977522;28;20471;-72
2024/01/07 07:47:48;;;;;;;13.75;9.38;;;;;;;1.74;100.00;96057.25;4989558;28;20049;-72
2024/01/07 07:50:13;;;;;;;14.55;9.75;;;;;;;1.80;100.00;96060.56;4987450;28;20081;-72
2024/01/07 07:52:41;;;;;;;13.02;8.85;;;;;;;1.69;100.00;96069.03;4992008;28;20053;-72
2024/01/07 07:55:06;;;;;;;12.50;8.52;;;;;;;1.81;100.00;96072.94;4979273;28;20069;-73
2024/01/07 07:57:32;;;;;;;13.02;8.85;;;;;;;1.99;100.00;96071.75;4989153;28;20050;-72
2024/01/07 07:59:57;;;;;;;12.38;8.65;;;;;;;2.19;100.00;96072.09;4980706;28;20100;-73
2024/01/07 08:02:23;;;;;;;15.18;10.23;;;;;;;2.01;100.00;96072.19;4975882;28;20115;-72
2024/01/07 08:04:48;;;;;;;16.90;11.35;;;;;;;2.04;100.00;96066.16;4974476;28;20043;-72
2024/01/07 08:07:14;;;;;;;12.95;9.15;;;;;;;2.27;100.00;96073.97;4971770;28;20061;-73
2024/01/07 08:09:39;;;;;;;12.43;8.75;;;;;;;2.36;100.00;96069.31;4980612;28;20132;-72
2024/01/07 08:12:05;;;;;;;12.38;9.13;;;;;;;2.42;100.00;96073.38;4975989;28;20524;-73
2024/01/07 08:14:32;;;;;;;13.80;9.50;;;;;;;2.47;100.00;96065.06;4984378;28;20061;-73
2024/01/07 08:16:58;;;;;;;13.57;9.38;;;;;;;2.37;100.00;96073.56;4985337;28;20385;-73
2024/01/07 08:19:23;;;;;;;17.88;12.93;;;;;;;2.52;100.00;96072.22;4979447;28;20151;-73
2024/01/07 08:21:49;;;;;;;16.10;10.90;;;;;;;2.49;100.00;96075.56;4980386;28;20050;-73
2024/01/07 08:24:14;;;;;;;16.05;10.02;;;;;;;2.63;100.00;96078.78;4975097;28;20060;-73
2024/01/07 08:26:40;;;;;;;18.55;12.02;;;;;;;2.40;100.00;96075.63;4989460;28;20061;-73
2024/01/07 08:29:06;;;;;;;23.27;14.27;;;;;;;2.37;100.00;96086.28;4974594;28;20056;-73
2024/01/07 08:31:31;;;;;;;40.70;22.85;;;;;;;2.53;100.00;96083.81;4980875;28;20133;-73
2024/01/07 08:33:57;;;;;;;23.77;16.08;;;;;;;2.42;100.00;96089.59;4979806;28;20050;-73
2024/01/07 08:36:22;;;;;;;14.75;10.27;;;;;;;2.51;100.00;96084.13;4977682;28;20956;-73
2024/01/07 08:38:48;;;;;;;14.88;10.10;;;;;;;2.60;100.00;96090.25;4963813;28;20050;-73
2024/01/07 08:41:15;;;;;;;14.50;10.30;;;;;;;2.61;100.00;96085.63;4975661;28;20370;-73
2024/01/07 08:43:41;;;;;;;16.38;11.05;;;;;;;2.81;100.00;96087.56;4963223;28;20107;-73
2024/01/07 08:46:06;;;;;;;19.48;12.65;;;;;;;2.66;100.00;96090.84;4990686;28;20042;-73
2024/01/07 08:48:32;;;;;;;15.48;9.93;;;;;;;2.55;100.00;96084.25;4979980;28;20142;-72
2024/01/07 08:50:57;;;;;;;15.38;10.80;;;;;;;2.76;100.00;96089.69;4979963;28;20061;-73
2024/01/07 08:53:22;;;;;;;15.15;10.60;;;;;;;2.35;100.00;96096.66;4974988;28;20709;-73
2024/01/07 08:55:48;;;;;;;14.27;10.45;;;;;;;2.28;100.00;96092.53;4979743;28;20054;-73
2024/01/07 08:58:17;;;;;;;16.80;11.80;;;;;;;2.57;100.00;96092.84;4973383;28;20110;-73
2024/01/07 09:00:43;;;;;;;15.07;10.75;;;;;;;2.69;100.00;96095.59;4978931;28;20054;-73
2024/01/07 09:03:09;;;;;;;14.68;9.55;;;;;;;2.98;100.00;96097.44;4974903;28;20073;-73
2024/01/07 09:05:34;;;;;;;16.27;10.93;;;;;;;3.05;100.00;96108.50;4963311;28;20409;-73
2024/01/07 09:08:00;;;;;;;17.73;10.23;;;;;;;3.17;100.00;96104.25;4994073;28;20038;-72
2024/01/07 09:10:26;;;;;;;14.50;9.40;;;;;;;3.24;100.00;96108.03;4975276;28;20478;-73
2024/01/07 09:12:53;;;;;;;13.70;10.32;;;;;;;3.04;100.00;96104.22;4979329;28;20074;-73
2024/01/07 09:15:19;;;;;;;13.48;9.15;;;;;;;3.18;100.00;96111.25;4979896;28;20100;-73
2024/01/07 09:17:45;;;;;;;12.93;8.93;;;;;;;3.15;100.00;96118.16;4984807;28;20050;-73
2024/01/07 09:20:10;;;;;;;13.38;8.95;;;;;;;3.18;100.00;96116.66;4979122;28;20576;-72
2024/01/07 09:22:36;;;;;;;14.65;9.50;;;;;;;3.22;100.00;96112.97;4984157;28;20058;-72
2024/01/07 09:25:05;;;;;;;12.57;8.80;;;;;;;3.20;100.00;96119.84;4983121;28;20543;-74
2024/01/07 09:27:32;;;;;;;;;;;;;;;3.13;100.00;96125.78;4983944;28;20100;-73
2024/01/07 09:29:57;;;;;;;13.75;9.23;;;;;;;3.23;100.00;96119.97;4981682;28;19921;-73
2024/01/07 09:32:23;;;;;;;15.98;10.00;;;;;;;3.15;100.00;96126.25;4980332;28;20047;-72
2024/01/07 09:34:48;;;;;;;14.45;9.85;;;;;;;3.27;100.00;96133.63;4985002;28;20073;-73
2024/01/07 09:37:14;;;;;;;18.13;12.13;;;;;;;2.61;100.00;96128.91;4981606;28;20403;-73
2024/01/07 09:39:40;;;;;;;22.75;13.80;;;;;;;2.66;100.00;96134.91;4969353;28;20073;-73
2024/01/07 09:42:15;;;;;;;17.05;11.40;;;;;;;2.99;100.00;96134.19;4990608;28;20043;-71
2024/01/07 09:44:42;;;;;;;15.38;9.73;;;;;;;3.15;100.00;96137.09;5002230;28;20548;-73
2024/01/07 09:47:11;;;;;;;11.95;8.82;;;;;;;3.23;100.00;96133.50;4979837;28;20046;-72
2024/01/07 09:49:37;;;;;;;13.97;9.50;;;;;;;3.20;100.00;96127.94;4984141;28;20481;-73
2024/01/07 09:52:04;;;;;;;15.05;9.68;;;;;;;3.10;100.00;96141.88;4980683;28;20042;-73
2024/01/07 09:54:30;;;;;;;13.48;9.23;;;;;;;3.29;100.00;96130.59;4982414;28;20050;-72
2024/01/07 09:57:01;;;;;;;16.30;12.77;;;;;;;2.48;100.00;96133.44;4982147;28;20046;-72
2024/01/07 09:59:30;;;;;;;14.27;9.93;;;;;;;2.76;100.00;96144.53;4951272;28;20137;-72
2024/01/07 10:01:56;;;;;;;14.00;10.30;;;;;;;2.57;100.00;96138.78;4979345;28;20480;-72
2024/01/07 10:04:23;;;;;;;16.33;12.23;;;;;;;2.51;100.00;96143.59;4976475;28;20367;-70
2024/01/07 10:06:48;;;;;;;13.75;9.82;;;;;;;2.50;100.00;96139.31;4975718;28;20523;-71
2024/01/07 10:09:15;;;;;;;14.07;10.32;;;;;;;2.84;100.00;96142.91;4975745;28;20137;-72
2024/01/07 10:11:40;;;;;;;15.38;10.45;;;;;;;2.46;100.00;96138.38;4981777;28;20056;-73
2024/01/07 10:14:06;;;;;;;15.70;9.80;;;;;;;2.90;100.00;96138.88;4979442;28;20042;-72
2024/01/07 10:16:32;;;;;;;15.73;9.65;;;;;;;3.10;100.00;96131.88;4989016;28;20059;-72
2024/01/07 10:18:58;;;;;;;14.55;9.80;;;;;;;3.14;100.00;96138.19;4982632;28;20046;-72
2024/01/07 10:21:24;;;;;;;12.70;9.45;;;;;;;2.85;100.00;96134.44;4975100;28;21065;-72
2024/01/07 10:23:50;;;;;;;12.38;8.95;;;;;;;3.06;100.00;96134.44;4982055;28;20050;-72
2024/01/07 10:26:15;;;;;;;13.40;9.00;;;;;;;2.93;100.00;96135.50;4974964;28;20125;-72
2024/01/07 10:28:43;;;;;;;13.50;9.20;;;;;;;2.78;100.00;96131.47;4983961;28;20504;-72
2024/01/07 10:31:09;;;;;;;15.10;9.57;;;;;;;2.70;100.00;96137.72;4979125;28;20050;-71
2024/01/07 10:33:34;;;;;;;15.43;10.05;;;;;;;2.65;100.00;96137.94;4981263;28;20097;-72
2024/01/07 10:36:06;;;;;;;15.52;10.25;;;;;;;2.56;100.00;96142.63;4982327;28;20162;-72
2024/01/07 10:38:33;;;;;;;17.90;10.98;;;;;;;2.62;100.00;96141.31;4980965;28;20074;-71
2024/01/07 10:41:00;;;;;;;17.98;12.02;;;;;;;2.77;100.00;96137.22;4999722;28;20043;-72
2024/01/07 10:43:29;;;;;;;21.42;14.23;;;;;;;2.06;100.00;96127.97;4973289;28;20551;-71
2024/01/07 10:45:55;;;;;;;19.23;12.95;;;;;;;2.40;100.00;96145.91;4986223;28;20116;-70
2024/01/07 10:48:23;;;;;;;19.40;12.50;;;;;;;2.52;100.00;96142.50;4978860;28;20054;-70
2024/01/07 10:50:53;;;;;;;17.13;11.88;;;;;;;2.68;100.00;96135.38;4980284;28;20085;-70
2024/01/07 10:53:20;;;;;;;;;;;;;;;2.44;100.00;96146.81;4976351;28;20584;-70
2024/01/07 10:55:59;;;;;;;20.70;14.43;;;;;;;2.07;100.00;96134.94;4980371;28;20439;-71
2024/01/07 10:58:26;;;;;;;17.73;11.85;;;;;;;2.52;100.00;96144.38;4975067;28;20054;-71
2024/01/07 11:00:52;;;;;;;18.52;12.35;;;;;;;2.73;100.00;96134.38;4979970;28;20149;-70
2024/01/07 11:03:32;;;;;;;17.98;11.38;;;;;;;2.87;100.00;96137.63;4957898;28;20051;-70
2024/01/07 11:06:16;;;;;;;21.05;13.25;;;;;;;2.83;100.00;96131.28;4981853;28;20557;-72
2024/01/07 11:08:46;;;;;;;20.50;13.50;;;;;;;2.45;100.00;96136.81;4973827;28;20061;-72
2024/01/07 11:11:18;;;;;;;17.92;12.35;;;;;;;2.47;100.00;96138.06;4976496;28;20049;-71
2024/01/07 11:13:44;;;;;;;20.15;12.73;;;;;;;2.49;100.00;96133.13;4980766;28;20137;-71
2024/01/07 11:16:10;;;;;;;19.55;12.10;;;;;;;2.59;100.00;96131.13;4974213;28;20160;-72
2024/01/07 11:18:49;;;;;;;19.42;11.88;;;;;;;2.42;100.00;96132.06;4979924;28;20046;-72
2024/01/07 11:21:25;;;;;;;19.90;12.85;;;;;;;2.66;100.00;96124.09;4974914;28;20470;-71